EmailTwitter


Observations de surface / Europe / LIRF (16242)

Régions: Québec | Canada | États-Unis | Europe | France | UK | Ailleurs
Station
Affichage
Infos & localisation pour LIRF (16242) | Aide pour décoder les METARs

Observations prises le 2019-12-07 à 04H20 UTC (LIRF)

Etat du ciel: ciel variable.

Température: 9.0 Celsius

Point de rosée: 9.0 Celsius

Humidité relative: 100%

Vents: Est à 7 km/h ou 4 noeuds.

Pression au niveau moyen de la mer: 102.00 kilopascals.

Visibilité horizontale: 4.97 milles terrestres ou 7.95 kilomètres.

Observation METAR:

LIRF 070420Z 08004KT 8000 FEW020 SCT030 09/09 Q1020 NOSIG=